Bei Facebook empfehlenBei Twitter postenGoogle plusPinterest

Das Wetter im Erzgebirge am 16.08.2015

Wetter und Klima am 16.08.2015 Holzhau im Erzgebirge (630m ü.NN)
Letzte gemessene Temperatur und Uhrzeit der Messung18:00:00 Uhr19.10 °C
Temperatur (Maximum / Höchstwert) und Uhrzeit der Messung10:15:00 Uhr20.30 °C
Temperatur (Minimum / Tiefstwert) und Uhrzeit der Messung05:15:0012.80 °C
Errechneter Absolutwert der Temperaturschwankungen zwischen Tmin und Tmax des Tages7.50 K
Errechnete Tagesmitteltemperatur15.11111 °C
Gesamt - Niederschlag des Tages (in flüssiger Form)13.00 Liter / m²
Luftdruck (Maximum / Höchstwert) und Zeitpunkt der Messung03:00:00 Uhr1010.80 hPa
Luftdruck (Minimum / Tiefstwert) und Zeitpunkt der Messung10:45:00 Uhr1009.50 hPa
Errechneter Absolutwert der Luftdruckschwankungen des Tages1.30 hPa
Höchste gemessene Windgeschwindigkeit und Uhrzeit der Messung18:00:00 Uhr0.00 km/h
Errechnete Windhäufigkeit in Relation zu den Messwerten des Tages0.00000 %
Niedrigste Windkühle (Windchill) und Zeitpunkt der Messung05:15:00 Uhr12.80 °C
Taupunkt (Maximum / Höchstwert) und Uhrzeit der Messung10:00:00 Uhr17.70 °C
Taupunkt (Minimum / Tiefstwert) und Uhrzeit der Messung05:00:0011.30 °C
Anzahl der automatisch eingelesenen Messwerte 45

Detaillierte Wetter- und Klima- Messwerte für den 16.08.2015 in Holzhau im Erzgebirge (630m ü.NN)
ZeitTemperaturLuftdruckRel. LuftfeuchteWindWindrichtungWindchillTaupunktNiederschlag l/m²
18:00:0019.10 °C1009.70 hPa84.00 %16.30 °C13.00
10:45:0019.20 °C1009.50 hPa84.00 %16.40 °C 
10:30:0020.20 °C1009.80 hPa82.00 %17.00 °C 
10:15:0020.30 °C1009.80 hPa84.00 %17.50 °C 
10:00:0019.90 °C1009.70 hPa87.00 %17.70 °C 
09:45:0019.60 °C1009.80 hPa88.00 %17.60 °C 
09:30:0019.30 °C1009.90 hPa90.00 %17.60 °C 
09:15:0018.60 °C1010.00 hPa90.00 %16.90 °C 
09:00:0018.40 °C1009.90 hPa90.00 %16.70 °C 
08:45:0018.10 °C1009.80 hPa91.00 %16.60 °C 
08:30:0017.80 °C1010.00 hPa92.00 %16.50 °C 
08:15:0016.90 °C1010.10 hPa92.00 %15.60 °C 
08:00:0016.30 °C1010.10 hPa92.00 %15.00 °C 
07:45:0015.20 °C1010.20 hPa92.00 %13.90 °C 
07:30:0014.80 °C1010.20 hPa92.00 %13.50 °C 
07:15:0014.10 °C1010.10 hPa92.00 %12.80 °C 
07:00:0013.80 °C1010.10 hPa92.00 %12.50 °C 
06:45:0013.60 °C1010.20 hPa91.00 %12.20 °C 
06:30:0013.40 °C1010.20 hPa92.00 %12.10 °C 
06:15:0013.10 °C1010.30 hPa91.00 %11.70 °C 
06:00:0012.90 °C1010.10 hPa91.00 %11.50 °C 
05:45:0013.00 °C1010.00 hPa91.00 %11.60 °C 
05:30:0013.10 °C1010.10 hPa91.00 %11.70 °C 
05:15:0012.80 °C1010.10 hPa91.00 %11.40 °C 
05:00:0012.90 °C1010.10 hPa90.00 %11.30 °C 
04:45:0013.10 °C1010.20 hPa90.00 %11.50 °C 
04:30:0013.20 °C1010.40 hPa90.00 %11.60 °C 
04:15:0013.20 °C1010.40 hPa91.00 %11.80 °C 
04:00:0013.20 °C1010.40 hPa90.00 %11.60 °C 
03:45:0013.30 °C1010.40 hPa90.00 %11.70 °C 
03:30:0013.40 °C1010.70 hPa90.00 %11.80 °C 
03:15:0013.50 °C1010.70 hPa90.00 %11.90 °C 
03:00:0013.60 °C1010.80 hPa90.00 %12.00 °C 
02:45:0013.50 °C1010.80 hPa90.00 %11.90 °C 
02:30:0013.40 °C1010.60 hPa89.00 %11.60 °C 
02:15:0013.50 °C1010.70 hPa90.00 %11.90 °C 
02:00:0013.40 °C1010.70 hPa89.00 %11.60 °C 
01:45:0013.50 °C1010.50 hPa89.00 %11.70 °C 
01:30:0013.60 °C1010.40 hPa88.00 %11.70 °C 
01:15:0013.80 °C1010.30 hPa88.00 %11.80 °C 
01:00:0013.90 °C1010.50 hPa88.00 %11.90 °C 
00:45:0014.20 °C1010.50 hPa88.00 %12.20 °C 
00:30:0014.60 °C1010.60 hPa88.00 %12.60 °C 
00:15:0014.80 °C1010.60 hPa88.00 %12.80 °C 
00:00:0014.90 °C1010.70 hPa87.00 %12.80 °C 

Permanenter Link zu dieser Seite: Wetter im Erzgebirge am 16.08.2015
Performance-Info: Die Erstellung der Seite / Statistik(en) / Tabelle(n) erforderte 5 Datenbankserver-Abfrage(n) und dauerte 101 Millisekunden. (Dieser Messwert ist von der Gesamt-Auslastung des Servers abhängig.)
Erzgebirge - Wetter | Erzgebirge - Wetter (Mobilgeräte) | Komplette Klimadatenbank